Time;durP1;ratioP1;P1;durP2;ratioP2;P2;SDS_P1;SDS_P2;PMS_P1;PMS_P2;Temp;Humidity;BMP_temperature;BMP_pressure;BME280_temperature;BME280_humidity;BME280_pressure;Samples;Min_cycle;Max_cycle;Signal;HPM_P1;HPM_P2
2022/04/09 00:00:32;;;;;;;10.73;2.53;;;3.20;99.90;;;;;;4897518;29;20048;-85
2022/04/09 00:02:58;;;;;;;8.60;1.90;;;3.00;99.90;;;;;;4895609;29;20071;-85
2022/04/09 00:05:24;;;;;;;10.63;2.27;;;3.00;99.90;;;;;;4897476;29;20506;-85
2022/04/09 00:07:50;;;;;;;10.53;2.13;;;4.00;99.90;;;;;;4880355;29;20181;-85
2022/04/09 00:10:22;;;;;;;11.47;2.07;;;3.00;99.90;;;;;;4896592;29;20491;-85
2022/04/09 00:12:50;;;;;;;10.27;2.43;;;2.00;99.90;;;;;;4897698;29;20049;-85
2022/04/09 00:15:19;;;;;;;12.03;3.00;;;2.90;99.90;;;;;;4880457;29;20044;-85
2022/04/09 00:18:00;;;;;;;10.53;2.30;;;3.40;99.90;;;;;;4897688;29;20445;-85
2022/04/09 00:20:28;;;;;;;12.57;2.20;;;2.90;99.90;;;;;;4897424;29;20120;-85
2022/04/09 00:22:54;;;;;;;8.73;2.20;;;2.90;99.90;;;;;;4896307;29;20412;-85
2022/04/09 00:25:24;;;;;;;16.83;2.97;;;2.90;99.90;;;;;;4881095;29;20053;-85
2022/04/09 00:27:50;;;;;;;11.40;2.50;;;3.10;99.90;;;;;;4896283;29;20041;-85
2022/04/09 00:30:16;;;;;;;11.10;2.63;;;3.10;99.90;;;;;;4895437;29;20062;-85
2022/04/09 00:32:42;;;;;;;11.20;2.30;;;3.20;99.90;;;;;;4897547;29;20053;-85
2022/04/09 00:35:08;;;;;;;10.10;1.97;;;3.20;99.90;;;;;;4897314;29;20080;-85
2022/04/09 00:37:57;;;;;;;12.37;2.53;;;3.40;99.90;;;;;;4896667;29;20080;-86
2022/04/09 00:40:28;;;;;;;9.90;2.47;;;3.40;99.90;;;;;;4897459;29;20060;-86
2022/04/09 00:42:55;;;;;;;9.97;2.50;;;3.70;99.90;;;;;;4880061;29;20045;-86
2022/04/09 00:45:21;;;;;;;10.93;2.40;;;3.70;99.90;;;;;;4879681;29;20121;-86
2022/04/09 00:47:47;;;;;;;10.47;2.40;;;3.20;99.90;;;;;;4880101;29;20070;-86
2022/04/09 00:50:13;;;;;;;8.80;2.20;;;3.00;99.90;;;;;;4896214;29;20515;-86
2022/04/09 00:52:47;;;;;;;11.47;2.33;;;3.00;99.90;;;;;;4899177;29;20091;-86
2022/04/09 00:55:13;;;;;;;;;;;3.00;99.90;;;;;;4899968;29;20049;-86
2022/04/09 00:57:42;;;;;;;8.60;2.23;;;2.90;99.90;;;;;;4900465;29;19930;-86
2022/04/09 01:00:11;;;;;;;9.47;2.50;;;2.80;99.90;;;;;;4883922;29;20456;-86
2022/04/09 01:02:45;;;;;;;9.90;2.20;;;3.00;99.90;;;;;;4899603;29;20037;-85
2022/04/09 01:05:11;;;;;;;9.40;2.50;;;3.40;99.90;;;;;;4900318;29;20044;-86
2022/04/09 01:07:37;;;;;;;7.67;1.90;;;2.70;99.90;;;;;;4901523;29;20036;-86
2022/04/09 01:10:11;;;;;;;9.13;2.43;;;2.60;99.90;;;;;;4906860;29;20465;-86
2022/04/09 01:12:37;;;;;;;12.13;2.30;;;2.80;99.90;;;;;;4884541;29;20489;-86
2022/04/09 01:15:05;;;;;;;12.07;2.40;;;2.60;99.90;;;;;;4883818;29;20054;-86
2022/04/09 01:17:31;;;;;;;9.57;2.27;;;2.80;99.90;;;;;;4884175;29;20548;-86
2022/04/09 01:19:57;;;;;;;9.57;2.17;;;2.90;99.90;;;;;;4899355;29;20090;-86
2022/04/09 01:22:22;;;;;;;10.90;2.60;;;2.60;99.90;;;;;;4899583;29;20164;-86
2022/04/09 01:24:48;;;;;;;7.67;2.03;;;2.60;99.90;;;;;;4898972;29;20558;-87
2022/04/09 01:27:14;;;;;;;11.57;2.10;;;3.60;99.90;;;;;;4883699;29;20051;-87
2022/04/09 01:29:40;;;;;;;6.47;2.00;;;2.90;99.90;;;;;;4900793;29;20053;-87
2022/04/09 01:32:15;;;;;;;8.17;2.17;;;2.90;99.90;;;;;;4900455;29;20047;-86
2022/04/09 01:34:41;;;;;;;9.57;2.20;;;4.00;99.90;;;;;;4898707;29;20052;-86
2022/04/09 01:37:07;;;;;;;8.43;2.40;;;3.00;99.90;;;;;;4900125;29;20567;-87
2022/04/09 01:39:32;;;;;;;6.97;1.80;;;3.00;99.90;;;;;;4899436;29;20473;-87
2022/04/09 01:41:58;;;;;;;6.53;1.80;;;2.90;99.90;;;;;;4898607;29;20139;-86
2022/04/09 01:44:24;;;;;;;8.73;1.70;;;2.90;99.90;;;;;;4900001;29;20405;-86
2022/04/09 01:46:49;;;;;;;7.53;1.80;;;2.90;99.90;;;;;;4882591;29;20089;-87
2022/04/09 01:49:15;;;;;;;9.23;2.07;;;2.90;99.90;;;;;;4883136;29;20485;-87
2022/04/09 01:51:40;;;;;;;8.63;2.00;;;3.70;99.90;;;;;;4900100;29;20049;-86
2022/04/09 01:54:06;;;;;;;9.63;2.30;;;2.80;99.90;;;;;;4882583;29;20097;-87
2022/04/09 01:56:32;;;;;;;8.57;2.10;;;2.60;99.90;;;;;;4898812;29;20508;-87
2022/04/09 01:59:04;;;;;;;9.63;2.10;;;2.50;99.90;;;;;;4899681;29;20088;-86
2022/04/09 02:01:30;;;;;;;9.47;2.00;;;4.00;99.90;;;;;;4898396;29;20049;-87
2022/04/09 02:03:55;;;;;;;7.07;2.00;;;2.60;99.90;;;;;;4897137;29;20063;-87
2022/04/09 02:06:21;;;;;;;10.10;1.97;;;2.50;99.90;;;;;;4899645;29;20052;-86
2022/04/09 02:08:47;;;;;;;9.00;2.00;;;2.70;99.90;;;;;;4898842;29;20037;-86
2022/04/09 02:11:12;;;;;;;12.43;2.37;;;2.60;99.90;;;;;;4883010;29;20044;-86
2022/04/09 02:13:38;;;;;;;8.90;2.27;;;2.50;99.90;;;;;;4898165;29;20037;-86
2022/04/09 02:16:10;;;;;;;11.93;2.53;;;2.60;99.90;;;;;;4898251;29;20081;-86
2022/04/09 02:18:36;;;;;;;12.87;3.03;;;2.80;99.90;;;;;;4899807;29;20040;-87
2022/04/09 02:21:13;;;;;;;8.30;2.60;;;3.40;99.90;;;;;;4882409;29;20056;-87
2022/04/09 02:23:38;;;;;;;15.57;2.70;;;2.60;99.90;;;;;;4899221;29;20048;-87
2022/04/09 02:26:04;;;;;;;9.17;2.20;;;2.70;99.90;;;;;;4906419;29;20135;-87
2022/04/09 02:28:31;;;;;;;13.73;2.40;;;3.00;99.90;;;;;;4901184;29;20055;-86
2022/04/09 02:30:57;;;;;;;7.23;1.90;;;2.80;99.90;;;;;;4881715;29;20430;-86
2022/04/09 02:33:23;;;;;;;6.63;1.70;;;2.70;99.90;;;;;;4899133;29;20084;-86
2022/04/09 02:35:48;;;;;;;7.27;1.90;;;2.80;99.90;;;;;;4898472;29;20100;-87
2022/04/09 02:38:32;;;;;;;7.53;1.70;;;2.70;99.90;;;;;;4898067;29;20412;-86
2022/04/09 02:41:01;;;;;;;9.38;2.40;;;2.60;99.90;;;;;;4898780;29;20054;-86
2022/04/09 02:43:29;;;;;;;9.53;1.90;;;2.60;99.90;;;;;;4896532;29;20056;-86
2022/04/09 02:46:21;;;;;;;7.83;2.10;;;2.70;99.90;;;;;;4897013;29;20056;-86
2022/04/09 02:48:50;;;;;;;8.57;2.47;;;2.60;99.90;;;;;;4897013;29;20048;-87
2022/04/09 02:51:16;;;;;;;12.37;2.60;;;2.50;99.90;;;;;;4897002;29;20048;-86
2022/04/09 02:53:48;;;;;;;10.10;2.70;;;2.50;99.90;;;;;;4899262;29;20044;-86
2022/04/09 02:56:28;;;;;;;13.70;3.10;;;3.00;99.90;;;;;;4898685;29;20412;-86
2022/04/09 02:59:08;;;;;;;13.90;3.17;;;2.40;99.90;;;;;;4881283;29;20112;-86
2022/04/09 03:01:50;;;;;;;14.30;2.90;;;2.40;99.90;;;;;;4899119;29;20041;-86
2022/04/09 03:04:30;;;;;;;13.53;2.57;;;3.20;99.90;;;;;;4881062;29;20493;-86
2022/04/09 03:07:07;;;;;;;10.97;2.70;;;2.40;99.90;;;;;;4898199;29;20052;-86
2022/04/09 03:09:42;;;;;;;12.50;3.20;;;3.70;99.90;;;;;;4897445;29;20143;-87
2022/04/09 03:12:11;;;;;;;10.97;2.43;;;2.30;99.90;;;;;;4896762;29;20056;-86
2022/04/09 03:14:37;;;;;;;10.67;2.53;;;2.50;99.90;;;;;;4898767;29;20075;-86
2022/04/09 03:17:03;;;;;;;10.17;2.40;;;2.20;99.90;;;;;;4896327;29;20113;-86
2022/04/09 03:19:28;;;;;;;12.57;2.40;;;2.60;99.90;;;;;;4897750;29;20049;-86
2022/04/09 03:22:03;;;;;;;12.00;2.50;;;2.40;99.90;;;;;;4898123;29;20048;-86
2022/04/09 03:24:29;;;;;;;9.90;2.77;;;2.50;99.90;;;;;;4898378;29;20080;-86
2022/04/09 03:26:55;;;;;;;11.27;2.83;;;2.70;99.90;;;;;;4880546;29;20083;-86
2022/04/09 03:29:21;;;;;;;13.43;2.50;;;2.30;99.90;;;;;;4898700;29;20119;-86
2022/04/09 03:31:46;;;;;;;10.37;2.43;;;2.30;99.90;;;;;;4896562;29;20617;-86
2022/04/09 03:34:21;;;;;;;14.03;3.00;;;2.30;99.90;;;;;;4897378;29;20127;-86
2022/04/09 03:36:59;;;;;;;13.03;3.30;;;3.00;99.90;;;;;;4897935;29;20139;-86
2022/04/09 03:39:25;;;;;;;12.33;2.70;;;2.60;99.90;;;;;;4896340;29;20040;-86
2022/04/09 03:41:50;;;;;;;10.33;3.40;;;2.30;99.90;;;;;;4907959;29;20116;-87
2022/04/09 03:44:28;;;;;;;11.30;3.37;;;3.40;99.90;;;;;;4897720;29;20061;-86
2022/04/09 03:46:58;;;;;;;9.87;3.33;;;2.10;99.90;;;;;;4897265;29;20044;-85
2022/04/09 03:49:24;;;;;;;11.87;2.77;;;2.20;99.90;;;;;;4881215;29;20059;-86
2022/04/09 03:51:49;;;;;;;11.83;2.33;;;2.30;99.90;;;;;;4897519;29;20040;-86
2022/04/09 03:54:15;;;;;;;11.03;3.00;;;2.20;99.90;;;;;;4897325;29;20400;-86
2022/04/09 03:56:42;;;;;;;12.90;2.50;;;2.40;99.90;;;;;;4880943;29;20127;-86
2022/04/09 03:59:07;;;;;;;10.87;2.53;;;2.20;99.90;;;;;;4881076;29;20056;-86
2022/04/09 04:01:33;;;;;;;9.27;2.60;;;2.10;99.90;;;;;;4897398;29;20048;-86
2022/04/09 04:03:59;;;;;;;8.37;2.20;;;2.20;99.90;;;;;;4898001;29;20048;-86
2022/04/09 04:06:24;;;;;;;10.50;2.47;;;2.20;99.90;;;;;;4896980;29;20040;-86
2022/04/09 04:08:55;;;;;;;11.70;2.47;;;2.00;99.90;;;;;;4896910;29;20733;-86
2022/04/09 04:11:21;;;;;;;8.23;2.17;;;2.40;99.90;;;;;;4896161;29;20045;-86
2022/04/09 04:13:48;;;;;;;8.50;2.00;;;2.30;99.90;;;;;;4895950;29;20112;-86
2022/04/09 04:16:16;;;;;;;11.97;2.93;;;2.30;99.90;;;;;;4896809;29;20556;-86
2022/04/09 04:18:48;;;;;;;13.43;2.60;;;2.30;99.90;;;;;;4896260;29;20063;-86
2022/04/09 04:21:23;;;;;;;8.80;2.50;;;2.30;99.90;;;;;;4895759;29;20056;-86
2022/04/09 04:23:55;;;;;;;6.90;2.07;;;2.30;99.90;;;;;;4880893;29;20051;-86
2022/04/09 04:26:20;;;;;;;9.50;2.90;;;2.40;99.90;;;;;;4896651;29;20041;-86
2022/04/09 04:28:51;;;;;;;10.67;2.27;;;2.60;99.90;;;;;;4885791;29;20100;-86
2022/04/09 04:31:21;;;;;;;9.83;2.40;;;2.50;99.90;;;;;;4903615;29;20113;-86
2022/04/09 04:33:47;;;;;;;9.87;2.10;;;3.80;99.90;;;;;;4902293;29;20045;-86
2022/04/09 04:36:22;;;;;;;9.30;1.70;;;2.60;99.90;;;;;;4901595;29;20401;-86
2022/04/09 04:39:00;;;;;;;12.17;2.00;;;2.70;99.90;;;;;;4887193;29;20110;-87
2022/04/09 04:41:31;;;;;;;9.67;2.30;;;2.50;99.90;;;;;;4887013;29;20400;-86
2022/04/09 04:44:02;;;;;;;9.37;3.13;;;4.90;99.90;;;;;;4902435;29;20072;-86
2022/04/09 04:46:27;;;;;;;10.30;2.10;;;2.40;99.90;;;;;;4903911;29;20049;-86
2022/04/09 04:48:53;;;;;;;9.37;2.23;;;2.40;99.90;;;;;;4902044;29;20139;-86
2022/04/09 04:51:29;;;;;;;9.03;1.90;;;2.60;99.90;;;;;;4901129;29;20059;-86
2022/04/09 04:53:58;;;;;;;10.30;2.17;;;2.40;99.90;;;;;;4921195;23;20057;-85
2022/04/09 04:56:30;;;;;;;11.67;2.83;;;2.30;99.90;;;;;;4907412;29;20055;-86
2022/04/09 04:58:58;;;;;;;10.97;2.47;;;2.20;99.90;;;;;;4905795;29;20049;-86
2022/04/09 05:01:27;;;;;;;5.20;1.83;;;2.90;99.90;;;;;;4902140;29;20368;-86
2022/04/09 05:03:53;;;;;;;9.67;2.53;;;2.80;99.90;;;;;;4901227;29;20044;-86
2022/04/09 05:06:28;;;;;;;10.10;2.50;;;2.30;99.90;;;;;;4901099;29;20054;-86
2022/04/09 05:08:56;;;;;;;10.17;3.13;;;2.50;99.90;;;;;;4902914;29;20075;-86
2022/04/09 05:11:22;;;;;;;9.13;2.27;;;2.60;99.90;;;;;;4903031;29;20052;-86
2022/04/09 05:13:47;;;;;;;7.53;2.27;;;4.00;99.90;;;;;;4902101;29;20049;-87
2022/04/09 05:16:13;;;;;;;7.40;2.00;;;2.90;99.90;;;;;;4902429;29;20052;-86
2022/04/09 05:18:39;;;;;;;10.60;2.60;;;2.90;99.90;;;;;;4902659;29;20045;-86
2022/04/09 05:21:05;;;;;;;10.40;2.40;;;2.70;99.90;;;;;;4902854;29;20052;-86
2022/04/09 05:23:30;;;;;;;8.97;1.90;;;2.80;99.90;;;;;;4903414;29;20097;-86
2022/04/09 05:25:56;;;;;;;7.67;2.10;;;2.60;99.90;;;;;;4900875;29;20045;-86
2022/04/09 05:28:22;;;;;;;8.50;2.27;;;2.70;99.90;;;;;;4902396;29;20404;-86
2022/04/09 05:30:53;;;;;;;8.60;2.20;;;2.70;99.90;;;;;;4903399;29;20485;-86
2022/04/09 05:33:28;;;;;;;11.20;2.33;;;2.50;99.90;;;;;;4901269;29;20081;-86
2022/04/09 05:36:09;;;;;;;10.30;2.10;;;4.60;99.90;;;;;;4902925;29;20049;-88
2022/04/09 05:38:41;;;;;;;10.13;2.20;;;2.60;99.90;;;;;;4900903;29;20062;-85
2022/04/09 05:41:16;;;;;;;9.60;2.20;;;5.20;99.90;;;;;;4899941;29;20477;-86
2022/04/09 05:43:44;;;;;;;6.93;2.00;;;3.40;99.90;;;;;;4898880;29;20055;-86
2022/04/09 05:46:15;;;;;;;8.83;2.10;;;2.80;99.90;;;;;;4899949;29;20531;-87
2022/04/09 05:48:47;;;;;;;11.23;2.00;;;2.60;99.90;;;;;;4899131;29;20139;-86
2022/04/09 05:51:12;;;;;;;11.90;1.80;;;2.70;99.90;;;;;;4898941;29;20056;-87
2022/04/09 05:53:38;;;;;;;9.00;1.90;;;4.40;99.90;;;;;;4898667;29;20474;-86
2022/04/09 05:56:04;;;;;;;7.00;1.60;;;2.90;99.90;;;;;;4900018;29;20091;-87
2022/04/09 05:58:39;;;;;;;9.37;2.13;;;2.90;99.90;;;;;;4899815;29;20040;-86
2022/04/09 06:01:17;;;;;;;13.73;4.63;;;2.80;99.90;;;;;;4898667;29;20052;-86
2022/04/09 06:03:55;;;;;;;10.73;3.80;;;2.80;99.90;;;;;;4899466;29;20048;-86
2022/04/09 06:06:24;;;;;;;20.60;5.40;;;2.90;99.90;;;;;;4898356;29;20048;-86
2022/04/09 06:08:59;;;;;;;16.60;6.63;;;3.40;99.90;;;;;;4899020;29;20108;-87
2022/04/09 06:11:37;;;;;;;14.73;6.37;;;3.00;99.90;;;;;;4899736;29;20370;-86
2022/04/09 06:14:02;;;;;;;12.80;4.60;;;3.20;99.90;;;;;;4906207;29;20040;-87
2022/04/09 06:16:30;;;;;;;12.87;4.33;;;3.60;99.90;;;;;;4900219;29;20055;-86
2022/04/09 06:19:01;;;;;;;17.07;7.03;;;3.50;99.90;;;;;;4898352;29;20120;-87
2022/04/09 06:21:29;;;;;;;8.97;2.00;;;3.70;99.90;;;;;;4899062;29;20396;-87
2022/04/09 06:23:56;;;;;;;15.20;5.70;;;3.80;99.90;;;;;;4899222;29;20128;-87
2022/04/09 06:26:22;;;;;;;10.30;2.73;;;4.80;99.90;;;;;;4899541;29;20045;-87
2022/04/09 06:28:56;;;;;;;7.37;2.27;;;4.30;99.90;;;;;;4898812;29;20041;-87
2022/04/09 06:31:22;;;;;;;8.93;1.80;;;4.70;99.90;;;;;;4899358;29;20434;-86
2022/04/09 06:33:48;;;;;;;8.33;2.13;;;4.50;99.90;;;;;;4898013;29;20055;-86
2022/04/09 06:36:14;;;;;;;8.00;1.70;;;4.50;99.90;;;;;;4897229;29;20048;-86
2022/04/09 06:38:39;;;;;;;8.73;2.00;;;4.50;99.90;;;;;;4898115;29;20491;-87
2022/04/09 06:41:05;;;;;;;8.43;1.73;;;4.50;99.90;;;;;;4899602;29;20051;-87
2022/04/09 06:43:31;;;;;;;10.23;1.97;;;4.50;99.90;;;;;;4897355;29;20063;-87
2022/04/09 06:45:57;;;;;;;7.70;2.07;;;5.00;99.90;;;;;;4897919;29;20144;-86
2022/04/09 06:48:28;;;;;;;12.07;3.50;;;5.10;99.90;;;;;;4898217;29;20100;-87
2022/04/09 06:50:57;;;;;;;13.30;7.90;;;6.10;99.90;;;;;;4896549;29;20052;-86
2022/04/09 06:53:23;;;;;;;14.57;9.73;;;6.00;99.90;;;;;;4899077;29;20057;-90
2022/04/09 06:55:53;;;;;;;10.73;3.50;;;4.30;99.90;;;;;;4905352;29;20060;-92
2022/04/09 06:58:35;;;;;;;10.90;2.20;;;4.70;99.90;;;;;;4927083;23;20040;-94
2022/04/09 07:01:04;;;;;;;14.27;2.50;;;4.80;99.90;;;;;;4865609;29;20061;-90
2022/04/09 07:03:29;;;;;;;13.93;3.37;;;4.60;99.90;;;;;;4862294;29;20050;-93
2022/04/09 07:08:46;;;;;;;9.60;2.23;;;5.70;99.90;;;;;;4861907;29;20057;-94
2022/04/09 07:11:23;;;;;;;10.07;2.20;;;6.20;99.90;;;;;;4844741;29;20078;-93
2022/04/09 07:13:55;;;;;;;8.83;2.00;;;5.30;99.90;;;;;;4861235;29;20049;-91
2022/04/09 07:16:21;;;;;;;10.60;2.40;;;5.20;99.90;;;;;;4861935;29;20038;-88
2022/04/09 07:18:52;;;;;;;11.37;2.37;;;6.60;99.90;;;;;;4861113;29;20055;-91
2022/04/09 07:21:24;;;;;;;13.00;2.37;;;5.90;99.90;;;;;;4845834;29;20156;-92
2022/04/09 07:23:56;;;;;;;6.53;1.83;;;5.50;99.90;;;;;;4863297;29;20053;-96
2022/04/09 07:26:27;;;;;;;10.83;2.37;;;7.00;99.90;;;;;;4862722;29;20041;-94
2022/04/09 07:28:58;;;;;;;12.23;2.40;;;7.00;99.90;;;;;;4868113;29;20140;-95
2022/04/09 07:31:27;;;;;;;12.43;2.23;;;6.10;99.90;;;;;;4861041;29;20489;-95
2022/04/09 07:33:56;;;;;;;9.93;2.70;;;6.50;99.90;;;;;;4852968;29;20049;-93
2022/04/09 07:36:28;;;;;;;9.80;2.00;;;5.40;99.90;;;;;;4859427;29;20041;-94
2022/04/09 07:38:54;;;;;;;9.87;2.30;;;5.90;99.90;;;;;;4842687;29;20552;-90
2022/04/09 07:41:27;;;;;;;13.13;2.77;;;5.40;99.90;;;;;;4847402;29;20053;-91
2022/04/09 07:44:16;;;;;;;6.25;2.03;;;6.30;99.90;;;;;;4852493;29;20106;-94
2022/04/09 07:46:59;;;;;;;;;;;;;;;;;;;;;
2022/04/09 07:53:14;;;;;;;14.50;2.37;;;6.00;99.90;;;;;;5080999;23;20040;-94
2022/04/09 07:59:06;;;;;;;10.83;1.83;;;6.80;99.90;;;;;;4944007;23;20060;-92
2022/04/09 08:01:34;;;;;;;10.50;1.90;;;5.90;99.90;;;;;;4916264;29;20048;-93
2022/04/09 08:07:05;;;;;;;9.50;2.17;;;6.40;99.90;;;;;;4877822;29;20127;-91
2022/04/09 08:09:32;;;;;;;8.50;1.80;;;5.70;99.90;;;;;;4862690;29;20143;-92
2022/04/09 08:11:57;;;;;;;8.23;2.00;;;7.40;99.90;;;;;;4885559;29;20048;-87
2022/04/09 08:14:26;;;;;;;13.47;2.07;;;6.40;99.90;;;;;;4898889;29;20514;-86
2022/04/09 08:25:48;;;;;;;8.03;2.30;;;7.90;99.90;;;;;;4896587;29;20428;-90
2022/04/09 08:28:52;;;;;;;9.00;1.93;;;7.10;99.90;;;;;;4907860;23;20048;-91
2022/04/09 08:31:25;;;;;;;;;;;6.30;99.90;;;;;;4906346;23;20488;-90
2022/04/09 08:33:51;;;;;;;10.77;1.90;;;6.70;99.90;;;;;;4916396;29;19970;-90
2022/04/09 08:36:41;;;;;;;7.83;2.43;;;8.50;99.90;;;;;;4898551;29;20052;-89
2022/04/09 08:39:06;;;;;;;7.37;1.60;;;7.80;99.90;;;;;;4899095;29;20102;-89
2022/04/09 08:41:36;;;;;;;8.80;1.80;;;7.90;99.90;;;;;;4898771;29;20056;-91
2022/04/09 08:44:08;;;;;;;12.33;2.10;;;7.80;99.90;;;;;;4918191;29;20052;-91
2022/04/09 08:46:40;;;;;;;9.97;2.17;;;7.90;99.90;;;;;;4908468;29;20071;-90
2022/04/09 08:49:08;;;;;;;9.83;1.80;;;7.80;99.90;;;;;;4919993;29;20059;-92
2022/04/09 08:51:52;;;;;;;7.63;1.87;;;8.40;99.90;;;;;;4899122;29;20052;-88
2022/04/09 08:54:25;;;;;;;7.67;1.90;;;7.90;99.90;;;;;;4899141;29;20114;-89
2022/04/09 08:59:26;;;;;;;7.50;1.60;;;7.70;99.90;;;;;;4920634;23;20059;-90
2022/04/09 09:01:51;;;;;;;9.80;1.70;;;7.60;99.90;;;;;;4915002;29;20111;-89
2022/04/09 09:04:23;;;;;;;9.17;1.70;;;7.90;99.90;;;;;;4915498;29;20040;-88
2022/04/09 09:06:55;;;;;;;6.93;1.60;;;7.90;99.90;;;;;;4922134;23;20055;-89
2022/04/09 09:09:29;;;;;;;8.37;1.63;;;8.40;99.90;;;;;;4898814;29;20051;-88
2022/04/09 09:11:57;;;;;;;7.83;1.70;;;7.70;99.90;;;;;;4915177;29;20044;-87
2022/04/09 09:14:33;;;;;;;8.73;1.77;;;7.60;99.90;;;;;;4900526;29;20048;-87
2022/04/09 09:17:08;;;;;;;8.30;1.87;;;7.80;99.90;;;;;;4918240;29;20048;-87
2022/04/09 09:19:53;;;;;;;;;;;;;;;;;;;;;
2022/04/09 09:22:53;;;;;;;6.87;1.60;;;8.00;99.90;;;;;;4916872;29;20083;-88
2022/04/09 09:25:22;;;;;;;7.30;1.80;;;8.50;99.90;;;;;;4901566;29;20064;-87
2022/04/09 09:28:07;;;;;;;9.57;1.80;;;8.00;99.90;;;;;;4919454;29;20052;-87
2022/04/09 09:30:48;;;;;;;9.73;1.90;;;8.00;99.90;;;;;;4919400;29;20048;-87
2022/04/09 09:33:14;;;;;;;7.90;1.70;;;8.90;99.90;;;;;;4919501;29;20055;-88
2022/04/09 09:36:09;;;;;;;9.33;1.87;;;8.40;99.90;;;;;;4919350;29;20048;-88
2022/04/09 09:38:47;;;;;;;8.47;1.73;;;9.20;99.90;;;;;;4900158;29;20116;-89
2022/04/09 09:41:35;;;;;;;6.30;1.50;;;9.30;99.90;;;;;;4902091;29;20083;-88
2022/04/09 09:44:01;;;;;;;9.50;1.83;;;8.80;99.90;;;;;;4905057;23;20471;-86
2022/04/09 09:46:49;;;;;;;8.97;1.83;;;9.00;99.90;;;;;;4907046;23;20523;-87
2022/04/09 09:49:16;;;;;;;8.73;2.10;;;9.00;99.90;;;;;;4899186;29;20053;-87
2022/04/09 09:52:19;;;;;;;6.57;1.60;;;8.90;99.90;;;;;;4901878;29;20112;-90
2022/04/09 09:54:55;;;;;;;7.60;1.60;;;8.80;99.90;;;;;;4901958;29;20051;-89
2022/04/09 09:57:35;;;;;;;6.93;1.50;;;8.40;99.90;;;;;;4900246;29;20079;-89
2022/04/09 10:01:17;;;;;;;7.97;1.60;;;10.30;99.90;;;;;;4876577;29;20063;-91
2022/04/09 10:04:27;;;;;;;9.30;1.80;;;9.40;99.90;;;;;;4813042;29;20066;-91
2022/04/09 10:07:08;;;;;;;10.20;1.70;;;9.60;99.90;;;;;;4807412;29;20054;-90
2022/04/09 10:10:19;;;;;;;7.83;1.77;;;9.00;99.90;;;;;;4880351;29;20060;-90
2022/04/09 10:12:48;;;;;;;7.67;1.80;;;8.90;99.90;;;;;;4875758;23;20103;-89
2022/04/09 10:15:40;;;;;;;8.93;1.60;;;9.30;99.90;;;;;;4899168;29;20114;-89
2022/04/09 10:18:29;;;;;;;6.33;1.70;;;9.80;99.90;;;;;;4897831;29;20064;-88
2022/04/09 10:21:13;;;;;;;7.68;1.50;;;9.60;99.90;;;;;;4899867;29;20060;-88
2022/04/09 10:23:40;;;;;;;7.60;1.57;;;9.50;99.90;;;;;;4899666;29;20112;-95
2022/04/09 10:26:06;;;;;;;5.77;1.50;;;8.10;99.90;;;;;;4899322;29;20508;-89
2022/04/09 10:28:50;;;;;;;6.73;1.80;;;7.20;99.90;;;;;;4898679;29;20107;-92
2022/04/09 10:31:34;;;;;;;6.78;1.60;;;6.70;99.90;;;;;;4898867;29;20496;-92
2022/04/09 10:35:09;;;;;;;6.60;1.60;;;6.80;99.90;;;;;;4898167;29;20485;-92
2022/04/09 10:38:07;;;;;;;9.32;1.80;;;8.60;99.90;;;;;;4845247;29;20054;-93
2022/04/09 10:41:02;;;;;;;9.50;1.67;;;7.50;99.90;;;;;;4873350;29;20112;-93
2022/04/09 10:43:46;;;;;;;7.53;1.90;;;7.60;99.90;;;;;;4903489;29;20417;-90
2022/04/09 10:46:20;;;;;;;9.77;1.77;;;7.50;99.90;;;;;;4900895;29;20075;-95
2022/04/09 10:49:17;;;;;;;9.50;2.00;;;7.50;99.90;;;;;;4898046;29;20507;-95
2022/04/09 10:52:03;;;;;;;7.50;1.57;;;8.20;99.90;;;;;;4929095;23;20153;-96
2022/04/09 10:54:29;;;;;;;11.03;1.80;;;7.20;99.90;;;;;;4948956;23;20511;-93
2022/04/09 10:57:42;;;;;;;9.50;2.00;;;7.20;99.90;;;;;;4912803;29;20052;-93
2022/04/09 11:00:30;;;;;;;8.00;1.60;;;8.20;99.90;;;;;;4891839;29;20481;-91
2022/04/09 11:03:10;;;;;;;7.00;1.60;;;8.80;99.90;;;;;;4923490;23;20048;-94
2022/04/09 11:05:39;;;;;;;8.07;1.97;;;10.40;99.90;;;;;;4918299;29;20048;-91
2022/04/09 11:08:07;;;;;;;7.77;1.67;;;9.30;99.90;;;;;;4924711;23;20060;-91
2022/04/09 11:13:45;;;;;;;9.37;1.80;;;8.80;99.90;;;;;;4922126;23;20079;-90
2022/04/09 11:16:52;;;;;;;9.43;2.37;;;8.50;99.90;;;;;;4916961;29;20129;-93
2022/04/09 11:19:21;;;;;;;8.97;1.80;;;9.30;99.90;;;;;;4909173;29;20052;-93
2022/04/09 11:24:48;;;;;;;3.97;1.00;;;7.70;99.90;;;;;;4945511;23;20064;-96
2022/04/09 11:35:06;;;;;;;5.77;1.60;;;4.70;99.90;;;;;;4959487;23;20087;31
2022/04/09 11:38:01;;;;;;;8.27;3.17;;;6.00;99.90;;;;;;5193002;23;20048;-93
2022/04/09 11:40:30;;;;;;;8.93;2.20;;;5.80;99.90;;;;;;4899576;29;20076;-94
2022/04/09 11:42:57;;;;;;;5.80;1.50;;;5.20;99.90;;;;;;4877485;29;20048;-90
2022/04/09 11:45:29;;;;;;;7.73;2.53;;;6.80;99.90;;;;;;4894169;29;20142;-89
2022/04/09 11:48:02;;;;;;;9.57;4.03;;;5.70;99.90;;;;;;4915868;29;20507;-90
2022/04/09 11:50:39;;;;;;;8.55;1.70;;;7.10;99.90;;;;;;4916959;29;20146;-91
2022/04/09 11:53:21;;;;;;;8.20;1.90;;;6.90;99.90;;;;;;4917958;29;20052;-91
2022/04/09 11:55:58;;;;;;;12.07;2.13;;;6.90;99.90;;;;;;4915922;29;20055;-90
2022/04/09 11:58:34;;;;;;;13.97;4.27;;;7.20;99.90;;;;;;4915526;29;20048;-89
2022/04/09 12:01:00;;;;;;;9.83;2.10;;;7.70;99.90;;;;;;4917989;29;20123;-91
2022/04/09 12:03:26;;;;;;;9.30;2.17;;;7.90;99.90;;;;;;4915376;29;20591;-90
2022/04/09 12:05:52;;;;;;;14.60;4.73;;;8.10;99.90;;;;;;4914766;29;20048;-90
2022/04/09 12:08:25;;;;;;;7.43;1.80;;;8.40;99.90;;;;;;4916689;29;20374;-90
2022/04/09 12:10:52;;;;;;;13.83;4.53;;;8.70;99.90;;;;;;4916601;29;20131;-91
2022/04/09 12:13:27;;;;;;;7.93;2.00;;;8.70;99.90;;;;;;4916227;29;20123;-90
2022/04/09 12:15:53;;;;;;;10.47;2.77;;;8.90;99.90;;;;;;4915307;29;20087;-90
2022/04/09 12:18:32;;;;;;;12.70;3.00;;;8.70;99.90;;;;;;4916906;29;20427;-90
2022/04/09 12:21:16;;;;;;;11.20;2.03;;;10.20;99.90;;;;;;4914444;29;20048;-91
2022/04/09 12:23:45;;;;;;;13.00;2.53;;;8.20;99.90;;;;;;4900908;29;20064;-91
2022/04/09 12:26:25;;;;;;;13.27;3.57;;;8.20;99.90;;;;;;4916961;29;20157;-92
2022/04/09 12:29:20;;;;;;;18.33;6.73;;;7.80;99.90;;;;;;4915729;29;20067;-91
2022/04/09 12:31:48;;;;;;;9.10;2.10;;;7.90;99.90;;;;;;4915110;29;20063;-87
2022/04/09 12:34:18;;;;;;;12.30;3.67;;;8.20;99.90;;;;;;4980260;23;20104;-92
2022/04/09 12:37:19;;;;;;;10.27;2.57;;;8.40;99.90;;;;;;4921511;29;20055;-89
2022/04/09 12:39:51;;;;;;;10.83;3.80;;;8.60;99.90;;;;;;4878901;29;20056;-89
2022/04/09 12:42:30;;;;;;;9.57;3.33;;;9.00;99.90;;;;;;4934935;29;20122;-90
2022/04/09 12:45:29;;;;;;;10.73;1.90;;;9.30;99.90;;;;;;4918067;29;20058;-89
2022/04/09 12:47:58;;;;;;;6.93;1.53;;;9.10;99.90;;;;;;4879568;29;20093;-89
2022/04/09 12:50:48;;;;;;;6.13;1.40;;;9.60;99.90;;;;;;4890098;29;20102;-89
2022/04/09 12:53:13;;;;;;;10.23;3.38;;;9.80;99.90;;;;;;4938890;29;20056;-89
2022/04/09 12:55:49;;;;;;;4.43;1.70;;;10.90;99.90;;;;;;4938801;29;20044;-89
2022/04/09 12:58:15;;;;;;;9.90;1.60;;;11.10;99.90;;;;;;4922781;29;20106;-90
2022/04/09 13:00:40;;;;;;;5.03;1.48;;;9.70;99.90;;;;;;4922526;29;20048;-89
2022/04/09 13:03:17;;;;;;;7.47;1.90;;;9.00;99.90;;;;;;4997331;23;20030;-96
2022/04/09 13:05:42;;;;;;;7.33;1.63;;;8.50;99.90;;;;;;4905969;29;20492;-93
2022/04/09 13:08:08;;;;;;;4.97;1.47;;;8.40;99.90;;;;;;4920110;29;20051;-92
2022/04/09 13:10:34;;;;;;;7.07;2.17;;;8.00;99.90;;;;;;4919051;29;20036;-90
2022/04/09 13:13:00;;;;;;;7.47;2.20;;;7.70;99.90;;;;;;4902843;29;20052;-90
2022/04/09 13:15:26;;;;;;;7.73;1.70;;;8.20;99.90;;;;;;4903217;29;20063;-88
2022/04/09 13:17:55;;;;;;;11.57;3.13;;;8.10;99.90;;;;;;4901355;29;20408;-91
2022/04/09 13:20:21;;;;;;;10.83;2.83;;;6.70;99.90;;;;;;4902965;29;20484;-89
2022/04/09 13:22:50;;;;;;;9.67;2.33;;;7.10;99.90;;;;;;4901719;29;20060;-94
2022/04/09 13:25:21;;;;;;;8.33;2.33;;;7.00;99.90;;;;;;4919968;29;20079;-96
2022/04/09 13:27:49;;;;;;;7.57;2.20;;;7.00;99.90;;;;;;4902309;29;20044;-95
2022/04/09 13:30:15;;;;;;;10.10;2.73;;;7.10;99.90;;;;;;4920303;29;20052;-91
2022/04/09 13:32:41;;;;;;;10.07;2.73;;;8.10;99.90;;;;;;4902529;29;20580;-93
2022/04/09 13:35:07;;;;;;;17.83;10.40;;;7.60;99.90;;;;;;4919441;29;20500;-91
2022/04/09 13:37:33;;;;;;;14.30;8.07;;;8.00;99.90;;;;;;4901121;29;20044;-89
2022/04/09 13:39:59;;;;;;;12.93;5.30;;;8.60;99.90;;;;;;4901795;29;20044;-89
2022/04/09 13:42:28;;;;;;;9.87;3.13;;;8.90;99.90;;;;;;4901738;29;20555;-91
2022/04/09 13:44:53;;;;;;;8.20;1.90;;;9.20;99.90;;;;;;4917778;29;20040;-89
2022/04/09 13:47:19;;;;;;;5.67;1.80;;;9.30;99.90;;;;;;4918720;29;20036;-89
2022/04/09 13:50:10;;;;;;;6.07;1.40;;;9.00;99.90;;;;;;4926745;29;20044;-91
2022/04/09 13:52:42;;;;;;;7.47;1.97;;;9.90;99.90;;;;;;4919285;29;20048;-92
2022/04/09 13:55:10;;;;;;;9.27;2.40;;;10.20;99.90;;;;;;4913739;23;20077;-91
2022/04/09 13:57:40;;;;;;;5.10;1.30;;;9.40;99.90;;;;;;4913402;23;20065;-90
2022/04/09 14:00:06;;;;;;;6.73;1.70;;;9.60;99.90;;;;;;4880575;29;20077;-88